createdAt,value
2022-08-14T00:02:16.818Z,4.00
2022-08-14T00:04:46.495Z,4.60
2022-08-14T00:07:17.967Z,4.37
2022-08-14T00:10:02.561Z,7.07
2022-08-14T00:12:37.779Z,5.63
2022-08-14T00:15:10.543Z,5.93
2022-08-14T00:17:47.482Z,4.50
2022-08-14T00:20:24.130Z,4.27
2022-08-14T00:23:08.205Z,4.90
2022-08-14T00:25:42.839Z,7.97
2022-08-14T00:28:15.590Z,6.40
2022-08-14T00:30:46.964Z,4.80
2022-08-14T00:33:16.666Z,7.33
2022-08-14T00:36:35.797Z,4.63
2022-08-14T00:38:35.955Z,4.80
2022-08-14T00:41:05.165Z,5.30
2022-08-14T00:43:33.480Z,5.87
2022-08-14T00:46:05.377Z,7.27
2022-08-14T00:48:38.227Z,8.50
2022-08-14T00:51:09.032Z,6.97
2022-08-14T00:53:37.477Z,6.90
2022-08-14T00:56:09.025Z,6.90
2022-08-14T00:58:44.924Z,7.20
2022-08-14T01:01:14.653Z,7.27
2022-08-14T01:03:45.550Z,6.20
2022-08-14T01:06:21.320Z,5.63
2022-08-14T01:08:51.476Z,7.23
2022-08-14T01:11:31.604Z,6.63
2022-08-14T01:14:04.996Z,8.37
2022-08-14T01:16:53.251Z,7.60
2022-08-14T01:19:41.748Z,11.27
2022-08-14T01:22:13.576Z,6.73
2022-08-14T01:24:48.640Z,6.63
2022-08-14T01:27:19.774Z,7.47
2022-08-14T01:30:00.578Z,6.03
2022-08-14T01:32:37.706Z,6.43
2022-08-14T01:36:03.342Z,6.53
2022-08-14T01:38:10.406Z,7.20
2022-08-14T01:40:41.714Z,6.47
2022-08-14T01:43:18.838Z,7.07
2022-08-14T01:46:05.723Z,7.77
2022-08-14T01:48:37.212Z,6.63
2022-08-14T01:51:18.299Z,9.10
2022-08-14T01:53:55.640Z,8.73
2022-08-14T01:56:37.303Z,7.93
2022-08-14T01:59:09.936Z,7.23
2022-08-14T02:01:58.000Z,8.07
2022-08-14T02:04:54.651Z,8.20
2022-08-14T02:07:34.435Z,6.97
2022-08-14T02:10:13.250Z,7.03
2022-08-14T02:12:44.404Z,7.63
2022-08-14T02:15:18.942Z,7.43
2022-08-14T02:17:47.466Z,6.97
2022-08-14T02:20:23.921Z,6.77
2022-08-14T02:22:54.721Z,9.30
2022-08-14T02:25:29.769Z,9.77
2022-08-14T02:28:23.242Z,12.20
2022-08-14T02:30:46.432Z,9.80
2022-08-14T02:33:14.683Z,8.40
2022-08-14T02:35:52.846Z,7.73
2022-08-14T02:38:26.917Z,7.60
2022-08-14T02:41:00.542Z,6.73
2022-08-14T02:43:37.045Z,8.87
2022-08-14T02:46:20.727Z,8.27
2022-08-14T02:49:01.809Z,10.03
2022-08-14T02:51:33.567Z,8.40
2022-08-14T02:54:03.678Z,8.23
2022-08-14T02:57:16.157Z,8.33
2022-08-14T02:59:28.941Z,7.67
2022-08-14T03:02:02.292Z,8.27
2022-08-14T03:04:31.093Z,9.33
2022-08-14T03:07:07.107Z,8.03
2022-08-14T03:10:24.416Z,9.33
2022-08-14T03:12:36.280Z,8.90
2022-08-14T03:15:14.251Z,13.43
2022-08-14T03:17:57.119Z,7.83
2022-08-14T03:20:28.372Z,11.23
2022-08-14T03:23:00.199Z,8.63
2022-08-14T03:25:34.051Z,8.87
2022-08-14T03:28:08.168Z,20.90
2022-08-14T03:30:43.948Z,10.13
2022-08-14T03:33:14.207Z,10.23
2022-08-14T03:36:00.135Z,8.40
2022-08-14T03:39:13.230Z,8.73
2022-08-14T03:41:23.110Z,8.97
2022-08-14T03:43:57.028Z,11.73
2022-08-14T03:46:51.976Z,10.90
2022-08-14T03:49:16.450Z,9.13
2022-08-14T03:51:52.859Z,9.23
2022-08-14T03:54:22.092Z,9.30
2022-08-14T03:56:50.397Z,9.43
2022-08-14T03:59:20.054Z,9.50
2022-08-14T04:01:58.258Z,12.33
2022-08-14T04:04:30.862Z,9.37
2022-08-14T04:07:00.552Z,9.00
2022-08-14T04:09:30.089Z,10.27
2022-08-14T04:11:59.945Z,11.73
2022-08-14T04:14:32.061Z,10.30
2022-08-14T04:17:10.041Z,9.77
2022-08-14T04:19:40.569Z,11.10
2022-08-14T04:22:09.539Z,9.73
2022-08-14T04:24:39.945Z,10.23
2022-08-14T04:27:10.024Z,10.03
2022-08-14T04:29:40.588Z,9.80
2022-08-14T04:33:01.026Z,9.67
2022-08-14T04:34:59.652Z,9.40
2022-08-14T04:37:46.029Z,13.97
2022-08-14T04:40:31.507Z,10.60
2022-08-14T04:43:17.655Z,10.80
2022-08-14T04:45:51.003Z,12.80
2022-08-14T04:48:42.993Z,10.17
2022-08-14T04:51:10.565Z,11.13
2022-08-14T04:53:43.411Z,10.57
2022-08-14T04:56:30.975Z,10.50
2022-08-14T04:59:09.406Z,9.47
2022-08-14T05:01:41.694Z,10.33
2022-08-14T05:04:19.923Z,10.07
2022-08-14T05:06:49.568Z,11.00
2022-08-14T05:09:22.410Z,9.70
2022-08-14T05:11:51.506Z,9.73
2022-08-14T05:14:46.478Z,11.10
2022-08-14T05:17:13.719Z,10.17
2022-08-14T05:19:44.419Z,9.40
2022-08-14T05:22:30.485Z,10.67
2022-08-14T05:24:59.046Z,12.63
2022-08-14T05:27:31.100Z,10.87
2022-08-14T05:29:59.958Z,12.27
2022-08-14T05:32:30.198Z,12.70
2022-08-14T05:34:59.514Z,14.77
2022-08-14T05:37:29.561Z,10.97
2022-08-14T05:40:00.427Z,11.53
2022-08-14T05:42:32.322Z,13.10
2022-08-14T05:45:04.702Z,10.17
2022-08-14T05:47:39.549Z,10.73
2022-08-14T05:50:18.608Z,10.50
2022-08-14T05:52:50.803Z,10.97
2022-08-14T05:55:22.797Z,14.00
2022-08-14T05:57:52.668Z,11.23
2022-08-14T06:00:24.705Z,11.23
2022-08-14T06:03:00.689Z,11.63
2022-08-14T06:05:32.776Z,10.57
2022-08-14T06:08:03.289Z,11.70
2022-08-14T06:10:37.052Z,12.33
2022-08-14T06:13:05.212Z,11.23
2022-08-14T06:15:33.673Z,12.43
2022-08-14T06:18:03.521Z,10.93
2022-08-14T06:20:32.040Z,11.77
2022-08-14T06:23:02.586Z,10.83
2022-08-14T06:25:30.818Z,10.47
2022-08-14T06:28:00.778Z,13.27
2022-08-14T06:30:45.848Z,14.27
2022-08-14T06:33:18.722Z,10.20
2022-08-14T06:35:47.625Z,10.67
2022-08-14T06:38:17.613Z,10.37
2022-08-14T06:40:46.753Z,10.03
2022-08-14T06:43:20.959Z,9.63
2022-08-14T06:45:54.394Z,12.20
2022-08-14T06:48:25.831Z,9.53
2022-08-14T06:51:01.501Z,9.30
2022-08-14T06:53:31.514Z,13.53
2022-08-14T06:56:02.224Z,9.83
2022-08-14T06:58:31.836Z,15.17
2022-08-14T07:01:24.961Z,9.53
2022-08-14T07:04:23.726Z,8.87
2022-08-14T07:06:55.602Z,9.20
2022-08-14T07:09:40.587Z,8.53
2022-08-14T07:12:54.851Z,10.33
2022-08-14T07:15:12.034Z,8.80
2022-08-14T07:17:53.988Z,10.07
2022-08-14T07:20:30.906Z,13.10
2022-08-14T07:23:06.990Z,8.57
2022-08-14T07:25:38.071Z,8.83
2022-08-14T07:28:12.964Z,9.57
2022-08-14T07:30:50.891Z,9.23
2022-08-14T07:33:20.713Z,9.00
2022-08-14T07:35:57.652Z,9.07
2022-08-14T07:38:33.587Z,8.30
2022-08-14T07:41:06.899Z,10.47
2022-08-14T07:43:40.488Z,9.33
2022-08-14T07:46:10.079Z,12.97
2022-08-14T07:48:48.547Z,10.33
2022-08-14T07:51:20.236Z,9.57
2022-08-14T07:53:48.785Z,10.10
2022-08-14T07:56:47.436Z,8.73
2022-08-14T07:59:42.336Z,10.07
2022-08-14T08:02:17.463Z,9.87
2022-08-14T08:04:54.698Z,11.10
2022-08-14T08:07:24.722Z,9.40
2022-08-14T08:09:59.721Z,8.68
2022-08-14T08:12:31.088Z,14.40
2022-08-14T08:15:07.199Z,9.25
2022-08-14T08:17:38.743Z,9.20
2022-08-14T08:20:11.764Z,8.75
2022-08-14T08:22:48.316Z,9.93
2022-08-14T08:25:19.276Z,7.88
2022-08-14T08:27:56.904Z,8.60
2022-08-14T08:30:25.917Z,8.10
2022-08-14T08:32:56.354Z,9.65
2022-08-14T08:35:32.897Z,8.27
2022-08-14T08:39:14.568Z,8.95
2022-08-14T08:41:17.364Z,7.68
2022-08-14T08:43:52.502Z,8.90
2022-08-14T08:46:23.902Z,8.40
2022-08-14T08:51:30.995Z,8.40
2022-08-14T08:54:05.750Z,7.95
2022-08-14T08:56:42.136Z,7.95
2022-08-14T08:59:21.358Z,7.05
2022-08-14T09:01:57.743Z,6.70
2022-08-14T09:04:35.311Z,7.55
2022-08-14T09:07:10.998Z,7.20
2022-08-14T09:09:59.155Z,6.43
2022-08-14T09:12:31.429Z,7.40
2022-08-14T09:15:02.856Z,6.40
2022-08-14T09:17:41.503Z,6.60
2022-08-14T09:20:29.437Z,7.30
2022-08-14T09:22:58.065Z,7.03
2022-08-14T09:25:59.675Z,7.25
2022-08-14T09:28:20.804Z,8.77
2022-08-14T09:30:55.315Z,7.28
2022-08-14T09:33:56.637Z,8.30
2022-08-14T09:36:58.399Z,7.47
2022-08-14T09:39:34.928Z,7.20
2022-08-14T09:42:33.625Z,6.55
2022-08-14T09:45:18.950Z,7.80
2022-08-14T09:47:52.055Z,10.80
2022-08-14T09:50:25.839Z,7.85
2022-08-14T09:53:05.723Z,6.07
2022-08-14T09:55:46.515Z,7.03
2022-08-14T09:58:25.010Z,6.20
2022-08-14T10:00:55.030Z,8.55
2022-08-14T10:03:28.718Z,5.60
2022-08-14T10:06:08.754Z,5.68
2022-08-14T10:08:44.974Z,9.10
2022-08-14T10:11:23.090Z,8.55
2022-08-14T10:13:56.070Z,5.97
2022-08-14T10:16:33.199Z,6.82
2022-08-14T10:19:15.850Z,6.43
2022-08-14T10:23:13.472Z,6.07
2022-08-14T10:24:50.961Z,9.65
2022-08-14T10:27:28.116Z,5.95
2022-08-14T10:29:59.900Z,7.25
2022-08-14T10:32:42.128Z,8.18
2022-08-14T10:35:22.336Z,5.85
2022-08-14T10:37:51.969Z,7.78
2022-08-14T10:40:37.506Z,6.35
2022-08-14T10:43:22.980Z,6.43
2022-08-14T10:46:21.557Z,5.75
2022-08-14T10:49:05.838Z,5.40
2022-08-14T10:51:36.207Z,6.00
2022-08-14T10:54:26.178Z,6.68
2022-08-14T10:56:58.398Z,5.93
2022-08-14T10:59:30.665Z,5.85
2022-08-14T11:02:05.890Z,8.10
2022-08-14T11:04:37.793Z,5.32
2022-08-14T11:07:08.184Z,5.68
2022-08-14T11:09:44.695Z,4.65
2022-08-14T11:12:34.189Z,5.63
2022-08-14T11:15:10.461Z,4.63
2022-08-14T11:17:51.015Z,5.18
2022-08-14T11:20:26.856Z,5.45
2022-08-14T11:23:01.698Z,5.78
2022-08-14T11:25:43.362Z,5.05
2022-08-14T11:28:18.611Z,3.70
2022-08-14T11:30:58.431Z,5.32
2022-08-14T11:33:38.513Z,5.00
2022-08-14T11:36:18.495Z,6.28
2022-08-14T11:38:53.955Z,4.38
2022-08-14T11:41:22.253Z,3.42
2022-08-14T11:43:58.111Z,3.03
2022-08-14T11:46:37.686Z,3.58
2022-08-14T11:49:13.920Z,3.25
2022-08-14T11:51:54.041Z,4.43
2022-08-14T11:54:34.523Z,3.72
2022-08-14T11:57:04.406Z,3.00
2022-08-14T11:59:33.957Z,3.00
2022-08-14T12:02:45.906Z,5.50
2022-08-14T12:05:10.053Z,5.10
2022-08-14T12:07:48.116Z,5.38
2022-08-14T12:10:26.458Z,3.40
2022-08-14T12:13:20.066Z,3.58
2022-08-14T12:15:58.900Z,3.45
2022-08-14T12:18:32.653Z,3.50
2022-08-14T12:21:15.771Z,3.88
2022-08-14T12:23:47.709Z,4.55
2022-08-14T12:26:39.206Z,4.00
2022-08-14T12:29:09.615Z,4.13
2022-08-14T12:31:44.739Z,3.60
2022-08-14T12:34:20.074Z,5.45
2022-08-14T12:36:50.416Z,4.68
2022-08-14T12:39:21.215Z,3.67
2022-08-14T12:41:59.748Z,4.05
2022-08-14T12:44:31.071Z,6.97
2022-08-14T12:47:04.826Z,5.85
2022-08-14T12:49:35.253Z,3.25
2022-08-14T12:52:16.908Z,3.25
2022-08-14T12:54:57.500Z,5.15
2022-08-14T12:57:41.236Z,3.67
2022-08-14T13:00:23.807Z,3.25
2022-08-14T13:02:57.079Z,4.63
2022-08-14T13:05:31.793Z,4.38
2022-08-14T13:08:05.868Z,3.95
2022-08-14T13:10:54.129Z,3.58
2022-08-14T13:13:30.747Z,2.72
2022-08-14T13:15:58.932Z,3.35
2022-08-14T13:18:27.848Z,3.88
2022-08-14T13:21:01.303Z,3.35
2022-08-14T13:23:36.402Z,3.42
2022-08-14T13:26:10.479Z,2.67
2022-08-14T13:29:01.418Z,5.57
2022-08-14T13:31:30.548Z,2.47
2022-08-14T13:34:07.220Z,2.67
2022-08-14T13:36:54.125Z,2.80
2022-08-14T13:39:25.833Z,3.95
2022-08-14T13:41:55.605Z,3.83
2022-08-14T13:44:26.454Z,2.45
2022-08-14T13:46:55.795Z,3.20
2022-08-14T13:49:24.222Z,2.60
2022-08-14T13:51:53.987Z,2.63
2022-08-14T13:54:23.154Z,3.13
2022-08-14T13:56:52.802Z,3.60
2022-08-14T13:59:37.383Z,2.70
2022-08-14T14:02:07.994Z,2.88
2022-08-14T14:04:39.658Z,3.08
2022-08-14T14:07:11.577Z,2.80
2022-08-14T14:09:51.208Z,3.05
2022-08-14T14:12:37.317Z,3.60
2022-08-14T14:15:13.752Z,2.58
2022-08-14T14:17:44.177Z,3.17
2022-08-14T14:20:36.536Z,3.45
2022-08-14T14:23:20.721Z,3.00
2022-08-14T14:25:57.161Z,3.00
2022-08-14T14:28:33.101Z,3.85
2022-08-14T14:31:07.085Z,2.58
2022-08-14T14:33:46.789Z,4.10
2022-08-14T14:36:42.423Z,4.22
2022-08-14T14:39:11.951Z,3.30
2022-08-14T14:41:44.820Z,2.85
2022-08-14T14:44:16.014Z,3.25
2022-08-14T14:46:53.105Z,2.95
2022-08-14T14:49:31.683Z,4.05
2022-08-14T14:52:23.378Z,6.32
2022-08-14T14:55:00.877Z,4.40
2022-08-14T14:57:36.453Z,4.45
2022-08-14T15:00:13.030Z,4.03
2022-08-14T15:02:49.885Z,5.97
2022-08-14T15:05:21.996Z,4.15
2022-08-14T15:07:59.261Z,3.95
2022-08-14T15:10:38.285Z,5.63
2022-08-14T15:13:15.167Z,10.90
2022-08-14T15:15:49.772Z,4.53
2022-08-14T15:18:37.521Z,7.88
2022-08-14T15:21:13.493Z,4.32
2022-08-14T15:23:45.146Z,6.07
2022-08-14T15:26:24.313Z,6.32
2022-08-14T15:29:05.759Z,5.03
2022-08-14T15:31:38.719Z,4.18
2022-08-14T15:34:43.762Z,4.75
2022-08-14T15:37:10.971Z,4.57
2022-08-14T15:39:41.888Z,4.70
2022-08-14T15:42:15.694Z,4.20
2022-08-14T15:44:58.156Z,4.72
2022-08-14T15:47:41.498Z,7.22
2022-08-14T15:50:10.702Z,6.20
2022-08-14T15:52:42.969Z,6.45
2022-08-14T15:55:15.164Z,5.82
2022-08-14T15:58:02.272Z,5.50
2022-08-14T16:00:51.993Z,4.65
2022-08-14T16:03:27.847Z,6.07
2022-08-14T16:06:03.420Z,4.95
2022-08-14T16:08:36.356Z,5.10
2022-08-14T16:11:07.463Z,4.85
2022-08-14T16:13:43.083Z,5.15
2022-08-14T16:16:47.379Z,6.47
2022-08-14T16:19:06.309Z,7.25
2022-08-14T16:21:37.466Z,5.30
2022-08-14T16:27:01.676Z,6.15
2022-08-14T16:29:31.755Z,4.70
2022-08-14T16:32:33.137Z,6.07
2022-08-14T16:34:55.883Z,6.78
2022-08-14T16:37:34.228Z,5.85
2022-08-14T16:40:07.219Z,4.55
2022-08-14T16:40:24.218Z,7.78
2022-08-14T16:43:12.658Z,8.93
2022-08-14T16:45:28.873Z,4.38
2022-08-14T16:48:00.381Z,7.95
2022-08-14T16:50:44.759Z,5.15
2022-08-14T16:53:17.834Z,5.05
2022-08-14T16:55:53.273Z,5.65
2022-08-14T16:58:29.818Z,7.80
2022-08-14T17:01:24.936Z,5.07
2022-08-14T17:04:01.549Z,5.47
2022-08-14T17:06:47.490Z,4.57
2022-08-14T17:09:31.353Z,5.82
2022-08-14T17:12:07.688Z,4.85
2022-08-14T17:15:09.935Z,6.15
2022-08-14T17:17:49.909Z,5.30
2022-08-14T17:20:54.052Z,4.65
2022-08-14T17:23:22.566Z,5.07
2022-08-14T17:26:02.357Z,4.38
2022-08-14T17:28:51.085Z,5.43
2022-08-14T17:34:21.064Z,5.55
2022-08-14T17:36:58.543Z,4.38
2022-08-14T17:39:40.229Z,5.10
2022-08-14T17:42:13.209Z,4.70
2022-08-14T17:44:44.857Z,5.32
2022-08-14T17:47:18.086Z,4.85
2022-08-14T17:49:47.526Z,5.85
2022-08-14T17:52:34.379Z,5.90
2022-08-14T17:55:06.226Z,4.68
2022-08-14T17:57:41.219Z,6.40
2022-08-14T18:00:12.499Z,6.47
2022-08-14T18:02:50.596Z,5.47
2022-08-14T18:05:23.263Z,4.97
2022-08-14T18:08:32.889Z,5.20
2022-08-14T18:11:03.371Z,5.88
2022-08-14T18:13:49.813Z,5.15
2022-08-14T18:16:22.523Z,5.75
2022-08-14T18:18:51.665Z,5.35
2022-08-14T18:21:23.472Z,8.32
2022-08-14T18:24:28.091Z,6.95
2022-08-14T18:27:06.950Z,7.53
2022-08-14T18:29:55.476Z,8.27
2022-08-14T18:32:46.966Z,4.88
2022-08-14T18:35:23.025Z,7.72
2022-08-14T18:38:26.100Z,7.32
2022-08-14T18:41:36.174Z,6.63
2022-08-14T18:44:10.212Z,7.75
2022-08-14T18:47:15.151Z,5.88
2022-08-14T18:50:27.896Z,5.90
2022-08-14T18:52:54.111Z,8.32
2022-08-14T18:55:53.754Z,8.32
2022-08-14T18:58:30.980Z,8.10
2022-08-14T19:01:04.641Z,7.03
2022-08-14T19:03:58.731Z,8.75
2022-08-14T19:06:55.716Z,6.38
2022-08-14T19:09:52.091Z,5.90
2022-08-14T19:12:58.301Z,5.82
2022-08-14T19:15:31.619Z,5.90
2022-08-14T19:18:14.283Z,7.72
2022-08-14T19:20:49.145Z,5.82
2022-08-14T19:23:22.506Z,6.35
2022-08-14T19:25:54.487Z,6.45
2022-08-14T19:28:31.144Z,5.88
2022-08-14T19:31:42.530Z,5.53
2022-08-14T19:34:47.965Z,7.72
2022-08-14T19:37:45.067Z,7.97
2022-08-14T19:40:19.267Z,7.88
2022-08-14T19:42:49.011Z,5.93
2022-08-14T19:45:17.470Z,6.65
2022-08-14T19:47:49.897Z,6.70
2022-08-14T19:50:37.935Z,6.00
2022-08-14T19:53:17.618Z,6.13
2022-08-14T19:55:56.175Z,7.32
2022-08-14T19:58:28.124Z,6.22
2022-08-14T20:01:08.735Z,6.65
2022-08-14T20:04:00.171Z,5.47
2022-08-14T20:06:46.518Z,8.20
2022-08-14T20:11:08.260Z,6.22
2022-08-14T20:12:05.445Z,6.28
2022-08-14T20:14:53.205Z,6.70
2022-08-14T21:27:23.604Z,7.07
2022-08-14T22:32:58.009Z,9.37
2022-08-14T23:25:01.670Z,8.07
2022-08-14T23:28:05.049Z,7.90
2022-08-14T23:31:10.948Z,8.20
